sensor_id;sensor_type;location;lat;lon;timestamp;P1;durP1;ratioP1;P2;durP2;ratioP2
5553;SDS011;2800;49.528;8.666;2022-09-09T00:00:49;9.30;;;2.30;;
5553;SDS011;2800;49.528;8.666;2022-09-09T00:03:26;5.90;;;1.50;;
5553;SDS011;2800;49.528;8.666;2022-09-09T00:11:12;7.30;;;1.70;;
5553;SDS011;2800;49.528;8.666;2022-09-09T00:13:42;7.80;;;1.90;;
5553;SDS011;2800;49.528;8.666;2022-09-09T00:16:23;8.73;;;2.13;;
5553;SDS011;2800;49.528;8.666;2022-09-09T00:18:57;7.27;;;1.93;;
5553;SDS011;2800;49.528;8.666;2022-09-09T00:21:39;6.03;;;2.00;;
5553;SDS011;2800;49.528;8.666;2022-09-09T00:29:55;6.07;;;1.90;;
5553;SDS011;2800;49.528;8.666;2022-09-09T00:32:29;8.83;;;2.07;;
5553;SDS011;2800;49.528;8.666;2022-09-09T00:35:03;9.83;;;2.00;;
5553;SDS011;2800;49.528;8.666;2022-09-09T00:37:50;5.97;;;1.90;;
5553;SDS011;2800;49.528;8.666;2022-09-09T00:48:10;4.97;;;1.87;;
5553;SDS011;2800;49.528;8.666;2022-09-09T00:50:59;8.80;;;2.10;;
5553;SDS011;2800;49.528;8.666;2022-09-09T00:56:26;6.77;;;2.10;;
5553;SDS011;2800;49.528;8.666;2022-09-09T01:01:40;6.77;;;2.10;;
5553;SDS011;2800;49.528;8.666;2022-09-09T01:04:09;6.50;;;2.10;;
5553;SDS011;2800;49.528;8.666;2022-09-09T01:06:41;5.47;;;1.80;;
5553;SDS011;2800;49.528;8.666;2022-09-09T01:11:51;9.43;;;2.10;;
5553;SDS011;2800;49.528;8.666;2022-09-09T01:17:12;6.00;;;1.80;;
5553;SDS011;2800;49.528;8.666;2022-09-09T01:22:31;10.20;;;1.87;;
5553;SDS011;2800;49.528;8.666;2022-09-09T01:25:09;6.57;;;1.73;;
5553;SDS011;2800;49.528;8.666;2022-09-09T01:27:38;7.60;;;2.27;;
5553;SDS011;2800;49.528;8.666;2022-09-09T01:30:11;5.87;;;1.80;;
5553;SDS011;2800;49.528;8.666;2022-09-09T01:32:47;7.13;;;2.10;;
5553;SDS011;2800;49.528;8.666;2022-09-09T01:38:09;6.90;;;2.10;;
5553;SDS011;2800;49.528;8.666;2022-09-09T01:40:35;7.47;;;2.47;;
5553;SDS011;2800;49.528;8.666;2022-09-09T01:43:01;6.00;;;2.00;;
5553;SDS011;2800;49.528;8.666;2022-09-09T01:45:28;7.57;;;2.40;;
5553;SDS011;2800;49.528;8.666;2022-09-09T01:47:55;7.17;;;2.00;;
5553;SDS011;2800;49.528;8.666;2022-09-09T01:50:21;8.13;;;2.30;;
5553;SDS011;2800;49.528;8.666;2022-09-09T01:52:48;6.33;;;1.67;;
5553;SDS011;2800;49.528;8.666;2022-09-09T01:55:16;7.17;;;2.07;;
5553;SDS011;2800;49.528;8.666;2022-09-09T02:00:18;8.53;;;2.47;;
5553;SDS011;2800;49.528;8.666;2022-09-09T02:05:43;6.60;;;2.20;;
5553;SDS011;2800;49.528;8.666;2022-09-09T02:08:16;8.50;;;2.27;;
5553;SDS011;2800;49.528;8.666;2022-09-09T02:13:35;11.70;;;2.20;;
5553;SDS011;2800;49.528;8.666;2022-09-09T02:16:21;9.77;;;1.90;;
5553;SDS011;2800;49.528;8.666;2022-09-09T02:18:54;9.57;;;2.43;;
5553;SDS011;2800;49.528;8.666;2022-09-09T02:21:39;9.57;;;2.10;;
5553;SDS011;2800;49.528;8.666;2022-09-09T02:24:08;7.00;;;2.13;;
5553;SDS011;2800;49.528;8.666;2022-09-09T02:26:36;9.60;;;2.50;;
5553;SDS011;2800;49.528;8.666;2022-09-09T02:29:06;5.70;;;2.00;;
5553;SDS011;2800;49.528;8.666;2022-09-09T02:31:36;10.00;;;1.93;;
5553;SDS011;2800;49.528;8.666;2022-09-09T02:34:02;7.20;;;2.20;;
5553;SDS011;2800;49.528;8.666;2022-09-09T02:36:31;9.27;;;2.30;;
5553;SDS011;2800;49.528;8.666;2022-09-09T02:38:59;9.50;;;2.30;;
5553;SDS011;2800;49.528;8.666;2022-09-09T02:41:35;6.00;;;1.97;;
5553;SDS011;2800;49.528;8.666;2022-09-09T02:44:10;9.80;;;2.30;;
5553;SDS011;2800;49.528;8.666;2022-09-09T02:46:51;7.90;;;2.30;;
5553;SDS011;2800;49.528;8.666;2022-09-09T02:49:44;9.03;;;2.10;;
5553;SDS011;2800;49.528;8.666;2022-09-09T02:55:24;7.40;;;2.20;;
5553;SDS011;2800;49.528;8.666;2022-09-09T02:58:01;7.97;;;2.23;;
5553;SDS011;2800;49.528;8.666;2022-09-09T03:00:30;7.37;;;2.20;;
5553;SDS011;2800;49.528;8.666;2022-09-09T03:02:57;9.63;;;2.53;;
5553;SDS011;2800;49.528;8.666;2022-09-09T03:05:23;8.87;;;2.30;;
5553;SDS011;2800;49.528;8.666;2022-09-09T03:07:49;6.70;;;2.37;;
5553;SDS011;2800;49.528;8.666;2022-09-09T03:10:15;8.33;;;2.20;;
5553;SDS011;2800;49.528;8.666;2022-09-09T03:12:41;7.20;;;2.50;;
5553;SDS011;2800;49.528;8.666;2022-09-09T03:15:07;9.30;;;2.30;;
5553;SDS011;2800;49.528;8.666;2022-09-09T03:17:33;6.30;;;1.90;;
5553;SDS011;2800;49.528;8.666;2022-09-09T03:19:59;6.57;;;2.37;;
5553;SDS011;2800;49.528;8.666;2022-09-09T03:22:24;7.27;;;1.90;;
5553;SDS011;2800;49.528;8.666;2022-09-09T03:24:51;6.40;;;2.20;;
5553;SDS011;2800;49.528;8.666;2022-09-09T03:27:16;6.70;;;1.97;;
5553;SDS011;2800;49.528;8.666;2022-09-09T03:29:43;8.33;;;2.20;;
5553;SDS011;2800;49.528;8.666;2022-09-09T03:32:09;9.40;;;2.40;;
5553;SDS011;2800;49.528;8.666;2022-09-09T03:34:35;6.40;;;2.10;;
5553;SDS011;2800;49.528;8.666;2022-09-09T03:37:03;6.70;;;2.27;;
5553;SDS011;2800;49.528;8.666;2022-09-09T03:39:30;9.90;;;2.47;;
5553;SDS011;2800;49.528;8.666;2022-09-09T03:41:56;8.47;;;2.10;;
5553;SDS011;2800;49.528;8.666;2022-09-09T03:44:21;8.70;;;2.03;;
5553;SDS011;2800;49.528;8.666;2022-09-09T03:46:47;7.40;;;2.13;;
5553;SDS011;2800;49.528;8.666;2022-09-09T03:49:12;8.70;;;1.90;;
5553;SDS011;2800;49.528;8.666;2022-09-09T03:51:38;6.70;;;1.80;;
5553;SDS011;2800;49.528;8.666;2022-09-09T03:54:04;6.37;;;2.00;;
5553;SDS011;2800;49.528;8.666;2022-09-09T03:56:33;7.23;;;2.13;;
5553;SDS011;2800;49.528;8.666;2022-09-09T03:58:59;6.93;;;1.77;;
5553;SDS011;2800;49.528;8.666;2022-09-09T04:01:24;6.50;;;1.90;;
5553;SDS011;2800;49.528;8.666;2022-09-09T04:03:50;5.33;;;1.83;;
5553;SDS011;2800;49.528;8.666;2022-09-09T04:06:15;6.17;;;2.10;;
5553;SDS011;2800;49.528;8.666;2022-09-09T04:08:42;7.50;;;1.80;;
5553;SDS011;2800;49.528;8.666;2022-09-09T04:11:09;6.03;;;1.63;;
5553;SDS011;2800;49.528;8.666;2022-09-09T04:13:35;5.00;;;1.63;;
5553;SDS011;2800;49.528;8.666;2022-09-09T04:16:02;6.03;;;1.90;;
5553;SDS011;2800;49.528;8.666;2022-09-09T04:18:28;5.20;;;1.80;;
5553;SDS011;2800;49.528;8.666;2022-09-09T04:20:54;5.53;;;1.90;;
5553;SDS011;2800;49.528;8.666;2022-09-09T04:23:22;6.20;;;1.60;;
5553;SDS011;2800;49.528;8.666;2022-09-09T04:25:50;6.27;;;1.60;;
5553;SDS011;2800;49.528;8.666;2022-09-09T04:28:18;6.60;;;1.90;;
5553;SDS011;2800;49.528;8.666;2022-09-09T04:30:44;8.50;;;1.90;;
5553;SDS011;2800;49.528;8.666;2022-09-09T04:33:11;5.77;;;1.70;;
5553;SDS011;2800;49.528;8.666;2022-09-09T04:35:37;5.30;;;1.67;;
5553;SDS011;2800;49.528;8.666;2022-09-09T04:38:03;5.27;;;1.50;;
5553;SDS011;2800;49.528;8.666;2022-09-09T04:40:30;4.10;;;1.40;;
5553;SDS011;2800;49.528;8.666;2022-09-09T04:42:59;5.70;;;1.57;;
5553;SDS011;2800;49.528;8.666;2022-09-09T04:45:26;5.37;;;1.50;;
5553;SDS011;2800;49.528;8.666;2022-09-09T04:47:52;4.83;;;1.50;;
5553;SDS011;2800;49.528;8.666;2022-09-09T04:50:18;6.67;;;1.70;;
5553;SDS011;2800;49.528;8.666;2022-09-09T04:52:44;7.53;;;1.60;;
5553;SDS011;2800;49.528;8.666;2022-09-09T04:55:10;5.40;;;1.33;;
5553;SDS011;2800;49.528;8.666;2022-09-09T04:57:35;21.57;;;1.57;;
5553;SDS011;2800;49.528;8.666;2022-09-09T05:00:02;5.37;;;1.67;;
5553;SDS011;2800;49.528;8.666;2022-09-09T05:02:28;7.20;;;1.90;;
5553;SDS011;2800;49.528;8.666;2022-09-09T05:04:55;6.63;;;1.50;;
5553;SDS011;2800;49.528;8.666;2022-09-09T05:07:21;6.43;;;1.43;;
5553;SDS011;2800;49.528;8.666;2022-09-09T05:09:46;8.63;;;1.60;;
5553;SDS011;2800;49.528;8.666;2022-09-09T05:12:14;6.23;;;1.83;;
5553;SDS011;2800;49.528;8.666;2022-09-09T05:14:41;6.57;;;1.80;;
5553;SDS011;2800;49.528;8.666;2022-09-09T05:17:07;6.73;;;2.00;;
5553;SDS011;2800;49.528;8.666;2022-09-09T05:19:33;5.07;;;1.87;;
5553;SDS011;2800;49.528;8.666;2022-09-09T05:21:58;7.83;;;1.70;;
5553;SDS011;2800;49.528;8.666;2022-09-09T05:24:24;8.50;;;1.57;;
5553;SDS011;2800;49.528;8.666;2022-09-09T05:26:49;6.83;;;1.60;;
5553;SDS011;2800;49.528;8.666;2022-09-09T05:29:15;6.53;;;1.70;;
5553;SDS011;2800;49.528;8.666;2022-09-09T05:31:44;6.43;;;1.70;;
5553;SDS011;2800;49.528;8.666;2022-09-09T05:34:10;8.30;;;1.93;;
5553;SDS011;2800;49.528;8.666;2022-09-09T05:36:36;4.83;;;1.67;;
5553;SDS011;2800;49.528;8.666;2022-09-09T05:39:02;6.40;;;1.53;;
5553;SDS011;2800;49.528;8.666;2022-09-09T05:41:28;5.50;;;1.60;;
5553;SDS011;2800;49.528;8.666;2022-09-09T05:43:54;6.63;;;1.50;;
5553;SDS011;2800;49.528;8.666;2022-09-09T05:46:21;6.40;;;1.83;;
5553;SDS011;2800;49.528;8.666;2022-09-09T05:48:50;10.03;;;1.60;;
5553;SDS011;2800;49.528;8.666;2022-09-09T05:51:20;5.33;;;1.53;;
5553;SDS011;2800;49.528;8.666;2022-09-09T05:53:49;5.67;;;1.83;;
5553;SDS011;2800;49.528;8.666;2022-09-09T05:56:23;4.43;;;1.60;;
5553;SDS011;2800;49.528;8.666;2022-09-09T05:58:50;4.87;;;1.63;;
5553;SDS011;2800;49.528;8.666;2022-09-09T06:01:19;7.83;;;2.13;;
5553;SDS011;2800;49.528;8.666;2022-09-09T06:03:46;5.17;;;1.57;;
5553;SDS011;2800;49.528;8.666;2022-09-09T06:06:13;6.50;;;1.30;;
5553;SDS011;2800;49.528;8.666;2022-09-09T06:08:45;4.80;;;1.60;;
5553;SDS011;2800;49.528;8.666;2022-09-09T06:11:15;5.00;;;1.50;;
5553;SDS011;2800;49.528;8.666;2022-09-09T06:13:42;6.87;;;1.80;;
5553;SDS011;2800;49.528;8.666;2022-09-09T06:16:12;5.20;;;1.70;;
5553;SDS011;2800;49.528;8.666;2022-09-09T06:18:39;7.00;;;1.83;;
5553;SDS011;2800;49.528;8.666;2022-09-09T06:21:06;7.77;;;2.23;;
5553;SDS011;2800;49.528;8.666;2022-09-09T06:23:48;6.97;;;1.77;;
5553;SDS011;2800;49.528;8.666;2022-09-09T06:26:36;6.53;;;1.73;;
5553;SDS011;2800;49.528;8.666;2022-09-09T06:29:02;5.30;;;1.70;;
5553;SDS011;2800;49.528;8.666;2022-09-09T06:31:29;6.60;;;1.93;;
5553;SDS011;2800;49.528;8.666;2022-09-09T06:33:57;8.40;;;1.90;;
5553;SDS011;2800;49.528;8.666;2022-09-09T06:36:30;6.10;;;1.67;;
5553;SDS011;2800;49.528;8.666;2022-09-09T06:38:58;7.20;;;1.80;;
5553;SDS011;2800;49.528;8.666;2022-09-09T06:41:24;5.97;;;1.77;;
5553;SDS011;2800;49.528;8.666;2022-09-09T06:43:52;4.80;;;1.43;;
5553;SDS011;2800;49.528;8.666;2022-09-09T06:46:18;5.20;;;1.70;;
5553;SDS011;2800;49.528;8.666;2022-09-09T06:48:46;7.77;;;2.10;;
5553;SDS011;2800;49.528;8.666;2022-09-09T06:51:16;7.30;;;1.70;;
5553;SDS011;2800;49.528;8.666;2022-09-09T06:53:44;6.20;;;1.50;;
5553;SDS011;2800;49.528;8.666;2022-09-09T06:58:36;6.73;;;1.80;;
5553;SDS011;2800;49.528;8.666;2022-09-09T07:01:08;9.47;;;2.10;;
5553;SDS011;2800;49.528;8.666;2022-09-09T07:03:34;10.03;;;1.63;;
5553;SDS011;2800;49.528;8.666;2022-09-09T07:06:00;6.03;;;1.80;;
5553;SDS011;2800;49.528;8.666;2022-09-09T07:08:26;4.10;;;1.60;;
5553;SDS011;2800;49.528;8.666;2022-09-09T07:10:52;6.13;;;1.83;;
5553;SDS011;2800;49.528;8.666;2022-09-09T07:13:25;4.87;;;1.53;;
5553;SDS011;2800;49.528;8.666;2022-09-09T07:15:51;6.10;;;2.00;;
5553;SDS011;2800;49.528;8.666;2022-09-09T07:18:18;7.03;;;1.83;;
5553;SDS011;2800;49.528;8.666;2022-09-09T07:20:52;6.97;;;1.87;;
5553;SDS011;2800;49.528;8.666;2022-09-09T07:23:18;7.13;;;1.87;;
5553;SDS011;2800;49.528;8.666;2022-09-09T07:25:44;4.83;;;1.60;;
5553;SDS011;2800;49.528;8.666;2022-09-09T07:28:10;7.07;;;2.00;;
5553;SDS011;2800;49.528;8.666;2022-09-09T07:30:36;16.47;;;2.00;;
5553;SDS011;2800;49.528;8.666;2022-09-09T07:33:01;5.23;;;1.80;;
5553;SDS011;2800;49.528;8.666;2022-09-09T07:35:28;6.63;;;1.67;;
5553;SDS011;2800;49.528;8.666;2022-09-09T07:37:54;7.10;;;2.07;;
5553;SDS011;2800;49.528;8.666;2022-09-09T07:40:19;7.70;;;1.87;;
5553;SDS011;2800;49.528;8.666;2022-09-09T07:42:46;9.50;;;2.40;;
5553;SDS011;2800;49.528;8.666;2022-09-09T07:45:12;8.33;;;2.73;;
5553;SDS011;2800;49.528;8.666;2022-09-09T07:47:39;7.60;;;2.00;;
5553;SDS011;2800;49.528;8.666;2022-09-09T07:50:07;9.50;;;2.17;;
5553;SDS011;2800;49.528;8.666;2022-09-09T07:52:34;8.73;;;2.37;;
5553;SDS011;2800;49.528;8.666;2022-09-09T07:54:59;9.43;;;2.57;;
5553;SDS011;2800;49.528;8.666;2022-09-09T07:57:27;8.80;;;2.30;;
5553;SDS011;2800;49.528;8.666;2022-09-09T07:59:55;13.43;;;2.70;;
5553;SDS011;2800;49.528;8.666;2022-09-09T08:02:21;8.30;;;2.40;;
5553;SDS011;2800;49.528;8.666;2022-09-09T08:04:48;6.73;;;2.20;;
5553;SDS011;2800;49.528;8.666;2022-09-09T08:07:13;11.17;;;2.77;;
5553;SDS011;2800;49.528;8.666;2022-09-09T08:09:40;8.77;;;2.60;;
5553;SDS011;2800;49.528;8.666;2022-09-09T08:12:06;10.53;;;3.23;;
5553;SDS011;2800;49.528;8.666;2022-09-09T08:14:33;11.77;;;2.57;;
5553;SDS011;2800;49.528;8.666;2022-09-09T08:16:58;10.33;;;2.90;;
5553;SDS011;2800;49.528;8.666;2022-09-09T08:19:24;11.40;;;3.43;;
5553;SDS011;2800;49.528;8.666;2022-09-09T08:21:50;11.47;;;2.80;;
5553;SDS011;2800;49.528;8.666;2022-09-09T08:24:15;7.10;;;2.40;;
5553;SDS011;2800;49.528;8.666;2022-09-09T08:26:44;11.90;;;2.60;;
5553;SDS011;2800;49.528;8.666;2022-09-09T08:29:16;10.13;;;1.90;;
5553;SDS011;2800;49.528;8.666;2022-09-09T08:31:51;7.57;;;1.80;;
5553;SDS011;2800;49.528;8.666;2022-09-09T08:34:19;10.83;;;2.03;;
5553;SDS011;2800;49.528;8.666;2022-09-09T08:36:46;11.13;;;2.10;;
5553;SDS011;2800;49.528;8.666;2022-09-09T08:39:13;8.07;;;2.17;;
5553;SDS011;2800;49.528;8.666;2022-09-09T08:53:00;10.50;;;2.73;;
5553;SDS011;2800;49.528;8.666;2022-09-09T08:58:28;9.50;;;2.23;;
5553;SDS011;2800;49.528;8.666;2022-09-09T09:12:13;8.70;;;2.30;;
5553;SDS011;2800;49.528;8.666;2022-09-09T09:14:46;10.67;;;2.53;;
5553;SDS011;2800;49.528;8.666;2022-09-09T09:17:14;7.17;;;2.10;;
5553;SDS011;2800;49.528;8.666;2022-09-09T09:19:42;7.77;;;2.07;;
5553;SDS011;2800;49.528;8.666;2022-09-09T09:22:19;12.83;;;2.33;;
5553;SDS011;2800;49.528;8.666;2022-09-09T09:30:44;11.67;;;2.23;;
5553;SDS011;2800;49.528;8.666;2022-09-09T09:36:11;8.17;;;2.17;;
5553;SDS011;2800;49.528;8.666;2022-09-09T09:38:40;8.93;;;1.80;;
5553;SDS011;2800;49.528;8.666;2022-09-09T09:41:37;4.80;;;1.50;;
5553;SDS011;2800;49.528;8.666;2022-09-09T09:44:05;6.13;;;1.80;;
5553;SDS011;2800;49.528;8.666;2022-09-09T09:46:45;8.20;;;2.10;;
5553;SDS011;2800;49.528;8.666;2022-09-09T09:49:10;11.47;;;2.37;;
5553;SDS011;2800;49.528;8.666;2022-09-09T09:51:38;8.37;;;2.23;;
5553;SDS011;2800;49.528;8.666;2022-09-09T09:54:07;7.57;;;2.07;;
5553;SDS011;2800;49.528;8.666;2022-09-09T09:56:38;11.50;;;5.97;;
5553;SDS011;2800;49.528;8.666;2022-09-09T09:59:04;9.67;;;2.23;;
5553;SDS011;2800;49.528;8.666;2022-09-09T10:01:31;12.60;;;2.27;;
5553;SDS011;2800;49.528;8.666;2022-09-09T10:04:20;11.23;;;2.90;;
5553;SDS011;2800;49.528;8.666;2022-09-09T10:06:46;10.00;;;3.00;;
5553;SDS011;2800;49.528;8.666;2022-09-09T10:11:55;10.10;;;2.73;;
5553;SDS011;2800;49.528;8.666;2022-09-09T10:14:35;12.37;;;3.50;;
5553;SDS011;2800;49.528;8.666;2022-09-09T10:17:18;11.90;;;3.50;;
5553;SDS011;2800;49.528;8.666;2022-09-09T10:20:11;9.43;;;2.67;;
5553;SDS011;2800;49.528;8.666;2022-09-09T10:23:01;8.70;;;2.80;;
5553;SDS011;2800;49.528;8.666;2022-09-09T10:25:54;9.87;;;2.43;;
5553;SDS011;2800;49.528;8.666;2022-09-09T10:28:46;8.30;;;2.30;;
5553;SDS011;2800;49.528;8.666;2022-09-09T10:31:43;8.57;;;1.70;;
5553;SDS011;2800;49.528;8.666;2022-09-09T10:37:28;5.93;;;1.50;;
5553;SDS011;2800;49.528;8.666;2022-09-09T10:40:14;5.10;;;1.40;;
5553;SDS011;2800;49.528;8.666;2022-09-09T10:42:45;5.07;;;1.40;;
5553;SDS011;2800;49.528;8.666;2022-09-09T10:45:17;5.83;;;1.70;;
5553;SDS011;2800;49.528;8.666;2022-09-09T10:47:50;6.50;;;1.50;;
5553;SDS011;2800;49.528;8.666;2022-09-09T10:50:28;7.80;;;2.10;;
5553;SDS011;2800;49.528;8.666;2022-09-09T10:53:35;11.20;;;2.43;;
5553;SDS011;2800;49.528;8.666;2022-09-09T10:56:20;11.53;;;2.40;;
5553;SDS011;2800;49.528;8.666;2022-09-09T11:01:24;8.80;;;2.43;;
5553;SDS011;2800;49.528;8.666;2022-09-09T11:03:56;9.10;;;2.13;;
5553;SDS011;2800;49.528;8.666;2022-09-09T11:06:32;6.73;;;1.97;;
5553;SDS011;2800;49.528;8.666;2022-09-09T11:09:04;8.27;;;2.07;;
5553;SDS011;2800;49.528;8.666;2022-09-09T11:19:47;5.70;;;1.70;;
5553;SDS011;2800;49.528;8.666;2022-09-09T11:25:05;5.83;;;1.60;;
5553;SDS011;2800;49.528;8.666;2022-09-09T11:30:23;7.73;;;1.90;;
5553;SDS011;2800;49.528;8.666;2022-09-09T11:35:56;9.97;;;1.73;;
5553;SDS011;2800;49.528;8.666;2022-09-09T11:38:52;7.97;;;2.30;;
5553;SDS011;2800;49.528;8.666;2022-09-09T11:41:32;5.20;;;2.00;;
5553;SDS011;2800;49.528;8.666;2022-09-09T11:43:59;6.40;;;1.70;;
5553;SDS011;2800;49.528;8.666;2022-09-09T11:46:35;9.50;;;2.37;;
5553;SDS011;2800;49.528;8.666;2022-09-09T11:49:04;6.00;;;2.00;;
5553;SDS011;2800;49.528;8.666;2022-09-09T11:51:31;8.53;;;2.47;;
5553;SDS011;2800;49.528;8.666;2022-09-09T11:53:59;7.07;;;1.80;;
5553;SDS011;2800;49.528;8.666;2022-09-09T11:56:48;6.70;;;1.87;;
5553;SDS011;2800;49.528;8.666;2022-09-09T11:59:20;7.80;;;1.87;;
5553;SDS011;2800;49.528;8.666;2022-09-09T12:02:18;7.20;;;2.13;;
5553;SDS011;2800;49.528;8.666;2022-09-09T12:07:28;5.40;;;1.57;;
5553;SDS011;2800;49.528;8.666;2022-09-09T12:12:31;6.47;;;1.90;;
5553;SDS011;2800;49.528;8.666;2022-09-09T12:15:17;7.77;;;1.80;;
5553;SDS011;2800;49.528;8.666;2022-09-09T12:17:54;6.50;;;1.90;;
5553;SDS011;2800;49.528;8.666;2022-09-09T12:23:06;8.43;;;2.10;;
5553;SDS011;2800;49.528;8.666;2022-09-09T12:31:25;7.97;;;1.97;;
5553;SDS011;2800;49.528;8.666;2022-09-09T12:34:17;8.87;;;2.23;;
5553;SDS011;2800;49.528;8.666;2022-09-09T12:36:59;9.13;;;2.20;;
5553;SDS011;2800;49.528;8.666;2022-09-09T12:39:38;10.63;;;1.77;;
5553;SDS011;2800;49.528;8.666;2022-09-09T12:42:17;6.80;;;1.57;;
5553;SDS011;2800;49.528;8.666;2022-09-09T12:44:57;6.53;;;2.00;;
5553;SDS011;2800;49.528;8.666;2022-09-09T12:50:03;8.57;;;1.73;;
5553;SDS011;2800;49.528;8.666;2022-09-09T12:52:30;10.07;;;2.97;;
5553;SDS011;2800;49.528;8.666;2022-09-09T12:54:59;9.97;;;2.63;;
5553;SDS011;2800;49.528;8.666;2022-09-09T12:57:28;6.63;;;1.43;;
5553;SDS011;2800;49.528;8.666;2022-09-09T13:00:06;5.23;;;1.37;;
5553;SDS011;2800;49.528;8.666;2022-09-09T13:02:45;6.07;;;1.80;;
5553;SDS011;2800;49.528;8.666;2022-09-09T13:05:16;11.40;;;1.60;;
5553;SDS011;2800;49.528;8.666;2022-09-09T13:07:43;5.80;;;1.80;;
5553;SDS011;2800;49.528;8.666;2022-09-09T13:10:19;4.90;;;1.43;;
5553;SDS011;2800;49.528;8.666;2022-09-09T13:12:49;7.53;;;1.83;;
5553;SDS011;2800;49.528;8.666;2022-09-09T13:15:24;11.60;;;1.90;;
5553;SDS011;2800;49.528;8.666;2022-09-09T13:17:54;6.30;;;1.50;;
5553;SDS011;2800;49.528;8.666;2022-09-09T13:20:23;6.30;;;1.53;;
5553;SDS011;2800;49.528;8.666;2022-09-09T13:22:50;7.23;;;1.70;;
5553;SDS011;2800;49.528;8.666;2022-09-09T13:27:59;13.60;;;2.00;;
5553;SDS011;2800;49.528;8.666;2022-09-09T13:32:59;7.47;;;2.07;;
5553;SDS011;2800;49.528;8.666;2022-09-09T13:35:26;5.97;;;2.00;;
5553;SDS011;2800;49.528;8.666;2022-09-09T13:37:52;8.70;;;2.00;;
5553;SDS011;2800;49.528;8.666;2022-09-09T13:40:19;26.07;;;2.60;;
5553;SDS011;2800;49.528;8.666;2022-09-09T13:42:46;9.70;;;1.80;;
5553;SDS011;2800;49.528;8.666;2022-09-09T13:45:17;7.90;;;2.13;;
5553;SDS011;2800;49.528;8.666;2022-09-09T13:47:45;5.80;;;1.90;;
5553;SDS011;2800;49.528;8.666;2022-09-09T13:50:24;7.17;;;1.87;;
5553;SDS011;2800;49.528;8.666;2022-09-09T13:52:52;11.03;;;2.50;;
5553;SDS011;2800;49.528;8.666;2022-09-09T13:55:28;9.07;;;2.40;;
5553;SDS011;2800;49.528;8.666;2022-09-09T13:58:01;6.40;;;1.93;;
5553;SDS011;2800;49.528;8.666;2022-09-09T14:00:32;8.13;;;2.10;;
5553;SDS011;2800;49.528;8.666;2022-09-09T14:02:59;7.97;;;2.20;;
5553;SDS011;2800;49.528;8.666;2022-09-09T14:05:29;8.37;;;2.17;;
5553;SDS011;2800;49.528;8.666;2022-09-09T14:07:57;7.87;;;2.17;;
5553;SDS011;2800;49.528;8.666;2022-09-09T14:10:22;7.60;;;1.80;;
5553;SDS011;2800;49.528;8.666;2022-09-09T14:12:48;12.27;;;2.37;;
5553;SDS011;2800;49.528;8.666;2022-09-09T14:15:14;6.30;;;1.97;;
5553;SDS011;2800;49.528;8.666;2022-09-09T14:17:39;8.07;;;2.30;;
5553;SDS011;2800;49.528;8.666;2022-09-09T14:20:05;6.57;;;2.13;;
5553;SDS011;2800;49.528;8.666;2022-09-09T14:22:34;6.50;;;1.90;;
5553;SDS011;2800;49.528;8.666;2022-09-09T14:25:00;6.90;;;1.50;;
5553;SDS011;2800;49.528;8.666;2022-09-09T14:27:26;5.50;;;1.20;;
5553;SDS011;2800;49.528;8.666;2022-09-09T14:29:52;5.20;;;1.10;;
5553;SDS011;2800;49.528;8.666;2022-09-09T14:32:18;4.43;;;1.10;;
5553;SDS011;2800;49.528;8.666;2022-09-09T14:34:43;3.93;;;1.20;;
5553;SDS011;2800;49.528;8.666;2022-09-09T14:37:09;5.47;;;1.10;;
5553;SDS011;2800;49.528;8.666;2022-09-09T14:39:34;4.90;;;1.17;;
5553;SDS011;2800;49.528;8.666;2022-09-09T14:42:00;4.23;;;1.37;;
5553;SDS011;2800;49.528;8.666;2022-09-09T14:44:27;4.80;;;1.20;;
5553;SDS011;2800;49.528;8.666;2022-09-09T14:46:52;5.70;;;1.30;;
5553;SDS011;2800;49.528;8.666;2022-09-09T14:49:19;6.13;;;1.50;;
5553;SDS011;2800;49.528;8.666;2022-09-09T14:51:44;4.80;;;1.20;;
5553;SDS011;2800;49.528;8.666;2022-09-09T14:54:10;4.03;;;1.10;;
5553;SDS011;2800;49.528;8.666;2022-09-09T14:56:36;3.83;;;1.20;;
5553;SDS011;2800;49.528;8.666;2022-09-09T14:59:01;4.53;;;1.30;;
5553;SDS011;2800;49.528;8.666;2022-09-09T15:01:28;4.33;;;1.30;;
5553;SDS011;2800;49.528;8.666;2022-09-09T15:03:56;6.37;;;2.00;;
5553;SDS011;2800;49.528;8.666;2022-09-09T15:06:23;5.00;;;1.60;;
5553;SDS011;2800;49.528;8.666;2022-09-09T15:08:50;7.90;;;1.80;;
5553;SDS011;2800;49.528;8.666;2022-09-09T15:11:17;7.70;;;1.90;;
5553;SDS011;2800;49.528;8.666;2022-09-09T15:13:45;6.80;;;1.70;;
5553;SDS011;2800;49.528;8.666;2022-09-09T15:16:15;8.13;;;1.67;;
5553;SDS011;2800;49.528;8.666;2022-09-09T15:18:42;5.00;;;1.63;;
5553;SDS011;2800;49.528;8.666;2022-09-09T15:21:10;5.90;;;1.50;;
5553;SDS011;2800;49.528;8.666;2022-09-09T15:23:36;6.47;;;1.50;;
5553;SDS011;2800;49.528;8.666;2022-09-09T15:26:02;7.10;;;1.77;;
5553;SDS011;2800;49.528;8.666;2022-09-09T15:28:29;5.00;;;1.50;;
5553;SDS011;2800;49.528;8.666;2022-09-09T15:30:57;6.03;;;1.70;;
5553;SDS011;2800;49.528;8.666;2022-09-09T15:33:24;5.93;;;1.50;;
5553;SDS011;2800;49.528;8.666;2022-09-09T15:35:50;5.83;;;1.53;;
5553;SDS011;2800;49.528;8.666;2022-09-09T15:38:16;6.30;;;1.87;;
5553;SDS011;2800;49.528;8.666;2022-09-09T15:40:42;9.63;;;1.90;;
5553;SDS011;2800;49.528;8.666;2022-09-09T15:43:09;4.30;;;1.33;;
5553;SDS011;2800;49.528;8.666;2022-09-09T15:45:35;7.47;;;1.67;;
5553;SDS011;2800;49.528;8.666;2022-09-09T15:48:02;5.43;;;1.20;;
5553;SDS011;2800;49.528;8.666;2022-09-09T15:50:28;5.83;;;1.40;;
5553;SDS011;2800;49.528;8.666;2022-09-09T15:52:56;4.03;;;1.30;;
5553;SDS011;2800;49.528;8.666;2022-09-09T15:55:22;4.00;;;1.30;;
5553;SDS011;2800;49.528;8.666;2022-09-09T15:57:50;4.37;;;1.20;;
5553;SDS011;2800;49.528;8.666;2022-09-09T16:00:17;7.50;;;1.30;;
5553;SDS011;2800;49.528;8.666;2022-09-09T16:02:43;4.00;;;1.10;;
5553;SDS011;2800;49.528;8.666;2022-09-09T16:05:09;4.80;;;1.20;;
5553;SDS011;2800;49.528;8.666;2022-09-09T16:07:34;5.03;;;1.30;;
5553;SDS011;2800;49.528;8.666;2022-09-09T16:10:01;3.40;;;1.10;;
5553;SDS011;2800;49.528;8.666;2022-09-09T16:12:27;4.13;;;1.27;;
5553;SDS011;2800;49.528;8.666;2022-09-09T16:14:52;4.40;;;1.20;;
5553;SDS011;2800;49.528;8.666;2022-09-09T16:17:18;5.03;;;1.30;;
5553;SDS011;2800;49.528;8.666;2022-09-09T16:19:45;4.17;;;1.27;;
5553;SDS011;2800;49.528;8.666;2022-09-09T16:22:11;4.70;;;1.23;;
5553;SDS011;2800;49.528;8.666;2022-09-09T16:24:36;4.50;;;1.30;;
5553;SDS011;2800;49.528;8.666;2022-09-09T16:27:02;4.53;;;1.20;;
5553;SDS011;2800;49.528;8.666;2022-09-09T16:29:28;4.50;;;1.40;;
5553;SDS011;2800;49.528;8.666;2022-09-09T16:31:53;3.93;;;1.27;;
5553;SDS011;2800;49.528;8.666;2022-09-09T16:34:19;4.47;;;1.40;;
5553;SDS011;2800;49.528;8.666;2022-09-09T16:36:46;3.80;;;1.20;;
5553;SDS011;2800;49.528;8.666;2022-09-09T16:39:19;4.50;;;1.20;;
5553;SDS011;2800;49.528;8.666;2022-09-09T16:41:46;5.63;;;1.20;;
5553;SDS011;2800;49.528;8.666;2022-09-09T16:44:14;4.00;;;1.27;;
5553;SDS011;2800;49.528;8.666;2022-09-09T16:46:43;5.00;;;1.20;;
5553;SDS011;2800;49.528;8.666;2022-09-09T16:49:10;4.40;;;1.10;;
5553;SDS011;2800;49.528;8.666;2022-09-09T16:51:38;3.70;;;1.17;;
5553;SDS011;2800;49.528;8.666;2022-09-09T16:54:06;5.00;;;1.30;;
5553;SDS011;2800;49.528;8.666;2022-09-09T16:56:34;4.63;;;1.20;;
5553;SDS011;2800;49.528;8.666;2022-09-09T16:59:02;4.17;;;1.20;;
5553;SDS011;2800;49.528;8.666;2022-09-09T17:01:33;4.00;;;1.00;;
5553;SDS011;2800;49.528;8.666;2022-09-09T17:04:04;6.30;;;1.33;;
5553;SDS011;2800;49.528;8.666;2022-09-09T17:06:32;4.37;;;1.00;;
5553;SDS011;2800;49.528;8.666;2022-09-09T17:09:00;5.87;;;1.07;;
5553;SDS011;2800;49.528;8.666;2022-09-09T17:11:28;6.37;;;1.40;;
5553;SDS011;2800;49.528;8.666;2022-09-09T17:13:54;5.30;;;1.40;;
5553;SDS011;2800;49.528;8.666;2022-09-09T17:16:21;4.50;;;1.20;;
5553;SDS011;2800;49.528;8.666;2022-09-09T17:18:49;4.67;;;1.20;;
5553;SDS011;2800;49.528;8.666;2022-09-09T17:21:16;4.43;;;1.10;;
5553;SDS011;2800;49.528;8.666;2022-09-09T17:23:43;6.10;;;1.47;;
5553;SDS011;2800;49.528;8.666;2022-09-09T17:26:11;5.40;;;1.33;;
5553;SDS011;2800;49.528;8.666;2022-09-09T17:28:39;5.20;;;1.20;;
5553;SDS011;2800;49.528;8.666;2022-09-09T17:31:06;6.23;;;1.50;;
5553;SDS011;2800;49.528;8.666;2022-09-09T17:33:33;9.47;;;1.70;;
5553;SDS011;2800;49.528;8.666;2022-09-09T17:36:00;5.40;;;1.70;;
5553;SDS011;2800;49.528;8.666;2022-09-09T17:38:31;4.60;;;1.53;;
5553;SDS011;2800;49.528;8.666;2022-09-09T17:41:14;6.37;;;1.90;;